Decatur, IL (62522)

9:25 AM CDT on October 22, 2014 (GMT -0500)
Sandhill Dr. | Change Station
CLOSE
Current Station
Personal Weather Station
Location: Decatur, IL
Elevation: 676 ft
Nearby Weather Stations

Elev 676 ft 39.82 °N, 88.92 °W | Updated 6 seconds ago

Clear
Clear
46.9 °F
Feels Like 45 °F
N
4.3
Wind Variable Wind from ENE
Gusts 6.0 mph

Today
High -- | Low -- °F
--% Chance of Precip.
Yesterday
High -- | Low -- °F
Precip. -- in
7:13 AM 6:06 PM
Waning Crescent, 2% visible
Pressure 30.36 in
Visibility 10.0 miles
Clouds Clear
Windchill 45 °F
Dew Point 46 °F
Humidity 96%
Rainfall 0.00 in
Snow Depth Not available.
UV 1 out of 12
Pollen 1.10 out of 12
Air Quality Not available.
Flu Activity No Activity
METAR KDEC 221354Z 10006KT 10SM CLR 07/04 A3035 RMK AO2 SLP279 T00670039

More Conditions Fewer Conditions

Pressure 30.36 in
Visibility 10.0 miles
Clouds Clear
Windchill 45 °F
Dew Point 46 °F
Humidity 96%
Rainfall 0.00 in
Snow Depth Not available.
UV 1 out of 12
Pollen 1.10 out of 12
Air Quality Not available.
Flu Activity No Activity
METAR KDEC 221354Z 10006KT 10SM CLR 07/04 A3035 RMK AO2 SLP279 T00670039

More Conditions Fewer Conditions

10-Day Weather Forecast

Almanac

Astronomy

Oct. 22, 2014 Rise Set
Actual Time 7:13 AM CDT 6:06 PM CDT
Civil Twilight 6:46 AM CDT 6:33 PM CDT
Nautical Twilight 6:14 AM CDT 7:05 PM CDT
Astronomical Twilight 5:43 AM CDT 7:36 PM CDT
Moon 5:55 AM CDT 5:33 PM CDT
Length of Visible Light 11h 47m
Length of Day
10h 52m
Tomorrow will be 2m 27s shorter.
Waning Crescent, 2% of the Moon is Illuminated
Today
Waning Crescent
Oct 23
New
Oct 30
First Quarter
Nov 6
Full
Nov 14
Last Quarter

Today's Extremes

State Highs State Lows

Community

WunderPhotos

Upload Photos

1,763,927 photos uploaded!

WunderBlogs® & News

Nearby

Snow Depth

Station Depth Elevation
No new snow has been reported.

Earthquake Activity

City Distance Mag. Time & Date
No recent earthquake activity has been reported nearby.
Minimum magnitude displayed is 2.5.

Coastal Water Temperatures

Place Temperature
No Stations Reporting

Nearby Weather Stations